sensor_id;sensor_type;location;lat;lon;timestamp;pressure;altitude;pressure_sealevel;temperature;humidity
2294;BME280;1155;42.644;23.264;2023-11-21T00:02:18;60232.72;;;-140.67;100.00
2294;BME280;1155;42.644;23.264;2023-11-21T00:04:45;60232.72;;;-140.67;100.00
2294;BME280;1155;42.644;23.264;2023-11-21T00:07:13;60220.41;;;-140.67;100.00
2294;BME280;1155;42.644;23.264;2023-11-21T00:09:40;60240.91;;;-140.67;100.00
2294;BME280;1155;42.644;23.264;2023-11-21T00:12:07;60236.81;;;-140.67;100.00
2294;BME280;1155;42.644;23.264;2023-11-21T00:14:35;60224.53;;;-140.67;100.00
2294;BME280;1155;42.644;23.264;2023-11-21T00:17:03;60232.72;;;-140.67;100.00
2294;BME280;1155;42.644;23.264;2023-11-21T00:19:30;60261.38;;;-140.67;100.00
2294;BME280;1155;42.644;23.264;2023-11-21T00:21:58;60236.81;;;-140.67;100.00
2294;BME280;1155;42.644;23.264;2023-11-21T00:24:25;60232.72;;;-140.67;100.00
2294;BME280;1155;42.644;23.264;2023-11-21T00:26:52;60236.81;;;-140.67;100.00
2294;BME280;1155;42.644;23.264;2023-11-21T00:29:19;60208.13;;;-140.67;100.00
2294;BME280;1155;42.644;23.264;2023-11-21T00:31:46;60210.19;;;-140.67;100.00
2294;BME280;1155;42.644;23.264;2023-11-21T00:34:14;60245.00;;;-140.67;100.00
2294;BME280;1155;42.644;23.264;2023-11-21T00:36:41;60230.66;;;-140.67;100.00
2294;BME280;1155;42.644;23.264;2023-11-21T00:39:08;60218.38;;;-140.67;100.00
2294;BME280;1155;42.644;23.264;2023-11-21T00:41:35;60247.03;;;-140.67;100.00
2294;BME280;1155;42.644;23.264;2023-11-21T00:44:03;60232.72;;;-140.67;100.00
2294;BME280;1155;42.644;23.264;2023-11-21T00:46:30;60232.72;;;-140.67;100.00
2294;BME280;1155;42.644;23.264;2023-11-21T00:48:56;60232.72;;;-140.67;100.00
2294;BME280;1155;42.644;23.264;2023-11-21T00:51:25;60195.84;;;-140.67;100.00
2294;BME280;1155;42.644;23.264;2023-11-21T00:53:52;60224.53;;;-140.67;100.00
2294;BME280;1155;42.644;23.264;2023-11-21T00:56:19;60245.00;;;-140.67;100.00
2294;BME280;1155;42.644;23.264;2023-11-21T00:58:45;60232.72;;;-140.67;100.00
2294;BME280;1155;42.644;23.264;2023-11-21T01:01:15;60242.94;;;-140.67;100.00
2294;BME280;1155;42.644;23.264;2023-11-21T01:03:42;60228.63;;;-140.67;100.00
2294;BME280;1155;42.644;23.264;2023-11-21T01:06:09;60214.28;;;-140.67;100.00
2294;BME280;1155;42.644;23.264;2023-11-21T01:08:37;60247.03;;;-140.67;100.00
2294;BME280;1155;42.644;23.264;2023-11-21T01:11:05;60222.47;;;-140.67;100.00
2294;BME280;1155;42.644;23.264;2023-11-21T01:13:33;60208.13;;;-140.67;100.00
2294;BME280;1155;42.644;23.264;2023-11-21T01:16:01;60236.81;;;-140.67;100.00
2294;BME280;1155;42.644;23.264;2023-11-21T01:18:29;60220.41;;;-140.67;100.00
2294;BME280;1155;42.644;23.264;2023-11-21T01:20:56;60240.91;;;-140.67;100.00
2294;BME280;1155;42.644;23.264;2023-11-21T01:23:22;60222.47;;;-140.67;100.00
2294;BME280;1155;42.644;23.264;2023-11-21T01:25:51;60253.19;;;-140.67;100.00
2294;BME280;1155;42.644;23.264;2023-11-21T01:28:18;60228.63;;;-140.67;100.00
2294;BME280;1155;42.644;23.264;2023-11-21T01:30:45;60232.72;;;-140.67;100.00
2294;BME280;1155;42.644;23.264;2023-11-21T01:33:12;60206.09;;;-140.67;100.00
2294;BME280;1155;42.644;23.264;2023-11-21T01:35:41;60220.41;;;-140.67;100.00
2294;BME280;1155;42.644;23.264;2023-11-21T01:38:08;60249.09;;;-140.67;100.00
2294;BME280;1155;42.644;23.264;2023-11-21T01:40:35;60242.94;;;-140.67;100.00
2294;BME280;1155;42.644;23.264;2023-11-21T01:43:03;60247.03;;;-140.67;100.00
2294;BME280;1155;42.644;23.264;2023-11-21T01:45:30;60228.63;;;-140.67;100.00
2294;BME280;1155;42.644;23.264;2023-11-21T01:47:59;60236.81;;;-140.67;100.00
2294;BME280;1155;42.644;23.264;2023-11-21T01:50:27;60249.09;;;-140.67;100.00
2294;BME280;1155;42.644;23.264;2023-11-21T01:52:54;60255.22;;;-140.67;100.00
2294;BME280;1155;42.644;23.264;2023-11-21T01:55:22;60232.72;;;-140.67;100.00
2294;BME280;1155;42.644;23.264;2023-11-21T01:57:49;60232.72;;;-140.67;100.00
2294;BME280;1155;42.644;23.264;2023-11-21T02:00:17;60267.53;;;-140.67;100.00
2294;BME280;1155;42.644;23.264;2023-11-21T02:02:45;60228.63;;;-140.67;100.00
2294;BME280;1155;42.644;23.264;2023-11-21T02:05:13;60226.56;;;-140.67;100.00
2294;BME280;1155;42.644;23.264;2023-11-21T02:07:42;60226.56;;;-140.67;100.00
2294;BME280;1155;42.644;23.264;2023-11-21T02:10:09;60240.91;;;-140.67;100.00
2294;BME280;1155;42.644;23.264;2023-11-21T02:12:40;60249.09;;;-140.67;100.00
2294;BME280;1155;42.644;23.264;2023-11-21T02:15:08;60234.75;;;-140.67;100.00
2294;BME280;1155;42.644;23.264;2023-11-21T02:17:41;60216.31;;;-140.67;100.00
2294;BME280;1155;42.644;23.264;2023-11-21T02:20:10;60220.41;;;-140.67;100.00
2294;BME280;1155;42.644;23.264;2023-11-21T02:22:41;60240.91;;;-140.67;100.00
2294;BME280;1155;42.644;23.264;2023-11-21T02:25:10;60249.09;;;-140.67;100.00
2294;BME280;1155;42.644;23.264;2023-11-21T02:27:37;60240.91;;;-140.67;100.00
2294;BME280;1155;42.644;23.264;2023-11-21T02:30:04;60247.03;;;-140.67;100.00
2294;BME280;1155;42.644;23.264;2023-11-21T02:32:33;60261.38;;;-140.67;100.00
2294;BME280;1155;42.644;23.264;2023-11-21T02:35:00;60257.28;;;-140.67;100.00
2294;BME280;1155;42.644;23.264;2023-11-21T02:37:28;60253.19;;;-140.67;100.00
2294;BME280;1155;42.644;23.264;2023-11-21T02:39:54;60247.03;;;-140.67;100.00
2294;BME280;1155;42.644;23.264;2023-11-21T02:42:23;60245.00;;;-140.67;100.00
2294;BME280;1155;42.644;23.264;2023-11-21T02:44:49;60257.28;;;-140.67;100.00
2294;BME280;1155;42.644;23.264;2023-11-21T02:47:16;60265.47;;;-140.67;100.00
2294;BME280;1155;42.644;23.264;2023-11-21T02:49:43;60253.19;;;-140.67;100.00
2294;BME280;1155;42.644;23.264;2023-11-21T02:52:10;60261.38;;;-140.67;100.00
2294;BME280;1155;42.644;23.264;2023-11-21T02:54:37;60261.38;;;-140.67;100.00
2294;BME280;1155;42.644;23.264;2023-11-21T02:57:04;60249.09;;;-140.67;100.00
2294;BME280;1155;42.644;23.264;2023-11-21T02:59:32;60242.94;;;-140.67;100.00
2294;BME280;1155;42.644;23.264;2023-11-21T03:02:00;60251.13;;;-140.67;100.00
2294;BME280;1155;42.644;23.264;2023-11-21T03:04:27;60261.38;;;-140.67;100.00
2294;BME280;1155;42.644;23.264;2023-11-21T03:06:53;60230.66;;;-140.67;100.00
2294;BME280;1155;42.644;23.264;2023-11-21T03:09:20;60234.75;;;-140.67;100.00
2294;BME280;1155;42.644;23.264;2023-11-21T03:11:47;60240.91;;;-140.67;100.00
2294;BME280;1155;42.644;23.264;2023-11-21T03:14:14;60245.00;;;-140.67;100.00
2294;BME280;1155;42.644;23.264;2023-11-21T03:16:42;60261.38;;;-140.67;100.00
2294;BME280;1155;42.644;23.264;2023-11-21T03:19:10;60253.19;;;-140.67;100.00
2294;BME280;1155;42.644;23.264;2023-11-21T03:21:37;60236.81;;;-140.67;100.00
2294;BME280;1155;42.644;23.264;2023-11-21T03:24:04;60257.28;;;-140.67;100.00
2294;BME280;1155;42.644;23.264;2023-11-21T03:26:32;60232.72;;;-140.67;100.00
2294;BME280;1155;42.644;23.264;2023-11-21T03:28:59;60240.91;;;-140.67;100.00
2294;BME280;1155;42.644;23.264;2023-11-21T03:31:26;60238.84;;;-140.67;100.00
2294;BME280;1155;42.644;23.264;2023-11-21T03:33:54;60245.00;;;-140.67;100.00
2294;BME280;1155;42.644;23.264;2023-11-21T03:36:21;60257.28;;;-140.67;100.00
2294;BME280;1155;42.644;23.264;2023-11-21T03:38:50;60249.09;;;-140.67;100.00
2294;BME280;1155;42.644;23.264;2023-11-21T03:41:17;60253.19;;;-140.67;100.00
2294;BME280;1155;42.644;23.264;2023-11-21T03:43:44;60247.03;;;-140.67;100.00
2294;BME280;1155;42.644;23.264;2023-11-21T03:46:11;60257.28;;;-140.67;100.00
2294;BME280;1155;42.644;23.264;2023-11-21T03:48:38;60224.53;;;-140.67;100.00
2294;BME280;1155;42.644;23.264;2023-11-21T03:51:06;60240.91;;;-140.67;100.00
2294;BME280;1155;42.644;23.264;2023-11-21T03:53:33;60230.66;;;-140.67;100.00
2294;BME280;1155;42.644;23.264;2023-11-21T03:56:02;60232.72;;;-140.67;100.00
2294;BME280;1155;42.644;23.264;2023-11-21T03:58:29;60249.09;;;-140.67;100.00
2294;BME280;1155;42.644;23.264;2023-11-21T04:00:56;60240.91;;;-140.67;100.00
2294;BME280;1155;42.644;23.264;2023-11-21T04:03:22;60228.63;;;-140.67;100.00
2294;BME280;1155;42.644;23.264;2023-11-21T04:05:49;60265.47;;;-140.67;100.00
2294;BME280;1155;42.644;23.264;2023-11-21T04:08:17;60245.00;;;-140.67;100.00
2294;BME280;1155;42.644;23.264;2023-11-21T04:10:44;60251.13;;;-140.67;100.00
2294;BME280;1155;42.644;23.264;2023-11-21T04:13:11;60273.66;;;-140.67;100.00
2294;BME280;1155;42.644;23.264;2023-11-21T04:15:38;60259.34;;;-140.67;100.00
2294;BME280;1155;42.644;23.264;2023-11-21T04:18:05;60230.66;;;-140.67;100.00
2294;BME280;1155;42.644;23.264;2023-11-21T04:20:32;60224.53;;;-140.67;100.00
2294;BME280;1155;42.644;23.264;2023-11-21T04:22:59;60269.56;;;-140.67;100.00
2294;BME280;1155;42.644;23.264;2023-11-21T04:25:27;60220.41;;;-140.67;100.00
2294;BME280;1155;42.644;23.264;2023-11-21T04:27:54;60247.03;;;-140.67;100.00
2294;BME280;1155;42.644;23.264;2023-11-21T04:30:21;60240.91;;;-140.67;100.00
2294;BME280;1155;42.644;23.264;2023-11-21T04:32:48;60255.22;;;-140.67;100.00
2294;BME280;1155;42.644;23.264;2023-11-21T04:35:16;60255.22;;;-140.67;100.00
2294;BME280;1155;42.644;23.264;2023-11-21T04:37:43;60230.66;;;-140.67;100.00
2294;BME280;1155;42.644;23.264;2023-11-21T04:40:11;60224.53;;;-140.67;100.00
2294;BME280;1155;42.644;23.264;2023-11-21T04:42:39;60273.66;;;-140.67;100.00
2294;BME280;1155;42.644;23.264;2023-11-21T04:45:07;60228.63;;;-140.67;100.00
2294;BME280;1155;42.644;23.264;2023-11-21T04:47:36;60261.38;;;-140.67;100.00
2294;BME280;1155;42.644;23.264;2023-11-21T04:50:04;60265.47;;;-140.67;100.00
2294;BME280;1155;42.644;23.264;2023-11-21T04:52:32;60208.13;;;-140.67;100.00
2294;BME280;1155;42.644;23.264;2023-11-21T04:54:59;60263.44;;;-140.67;100.00
2294;BME280;1155;42.644;23.264;2023-11-21T04:57:27;60242.94;;;-140.67;100.00
2294;BME280;1155;42.644;23.264;2023-11-21T04:59:55;60234.75;;;-140.67;100.00
2294;BME280;1155;42.644;23.264;2023-11-21T05:02:22;60242.94;;;-140.67;100.00
2294;BME280;1155;42.644;23.264;2023-11-21T05:04:49;60253.19;;;-140.67;100.00
2294;BME280;1155;42.644;23.264;2023-11-21T05:07:15;60255.22;;;-140.67;100.00
2294;BME280;1155;42.644;23.264;2023-11-21T05:09:43;60265.47;;;-140.67;100.00
2294;BME280;1155;42.644;23.264;2023-11-21T05:12:11;60236.81;;;-140.67;100.00
2294;BME280;1155;42.644;23.264;2023-11-21T05:14:38;60247.03;;;-140.67;100.00
2294;BME280;1155;42.644;23.264;2023-11-21T05:17:06;60249.09;;;-140.67;100.00
2294;BME280;1155;42.644;23.264;2023-11-21T05:19:34;60232.72;;;-140.67;100.00
2294;BME280;1155;42.644;23.264;2023-11-21T05:22:02;60245.00;;;-140.67;100.00
2294;BME280;1155;42.644;23.264;2023-11-21T05:24:28;60245.00;;;-140.67;100.00
2294;BME280;1155;42.644;23.264;2023-11-21T05:26:55;60226.56;;;-140.67;100.00
2294;BME280;1155;42.644;23.264;2023-11-21T05:29:23;60265.47;;;-140.67;100.00
2294;BME280;1155;42.644;23.264;2023-11-21T05:31:51;60220.41;;;-140.67;100.00
2294;BME280;1155;42.644;23.264;2023-11-21T05:34:19;60269.56;;;-140.67;100.00
2294;BME280;1155;42.644;23.264;2023-11-21T05:36:49;60245.00;;;-140.67;100.00
2294;BME280;1155;42.644;23.264;2023-11-21T05:39:16;60230.66;;;-140.67;100.00
2294;BME280;1155;42.644;23.264;2023-11-21T05:41:44;60265.47;;;-140.67;100.00
2294;BME280;1155;42.644;23.264;2023-11-21T05:44:11;60265.47;;;-140.67;100.00
2294;BME280;1155;42.644;23.264;2023-11-21T05:46:40;60224.53;;;-140.67;100.00
2294;BME280;1155;42.644;23.264;2023-11-21T05:49:08;60257.28;;;-140.67;100.00
2294;BME280;1155;42.644;23.264;2023-11-21T05:51:36;60261.38;;;-140.67;100.00
2294;BME280;1155;42.644;23.264;2023-11-21T05:54:04;60261.38;;;-140.67;100.00
2294;BME280;1155;42.644;23.264;2023-11-21T05:56:31;60245.00;;;-140.67;100.00
2294;BME280;1155;42.644;23.264;2023-11-21T05:58:58;60265.47;;;-140.67;100.00
2294;BME280;1155;42.644;23.264;2023-11-21T06:01:25;60236.81;;;-140.67;100.00
2294;BME280;1155;42.644;23.264;2023-11-21T06:03:53;60269.56;;;-140.67;100.00
2294;BME280;1155;42.644;23.264;2023-11-21T06:06:20;60245.00;;;-140.67;100.00
2294;BME280;1155;42.644;23.264;2023-11-21T06:08:51;60240.91;;;-140.67;100.00
2294;BME280;1155;42.644;23.264;2023-11-21T06:11:18;60240.91;;;-140.67;100.00
2294;BME280;1155;42.644;23.264;2023-11-21T06:13:45;60249.09;;;-140.67;100.00
2294;BME280;1155;42.644;23.264;2023-11-21T06:16:13;60228.63;;;-140.67;100.00
2294;BME280;1155;42.644;23.264;2023-11-21T06:18:41;60273.66;;;-140.67;100.00
2294;BME280;1155;42.644;23.264;2023-11-21T06:21:09;60228.63;;;-140.67;100.00
2294;BME280;1155;42.644;23.264;2023-11-21T06:23:36;60255.22;;;-140.67;100.00
2294;BME280;1155;42.644;23.264;2023-11-21T06:26:04;60259.34;;;-140.67;100.00
2294;BME280;1155;42.644;23.264;2023-11-21T06:28:31;60261.38;;;-140.67;100.00
2294;BME280;1155;42.644;23.264;2023-11-21T06:30:58;60263.44;;;-140.67;100.00
2294;BME280;1155;42.644;23.264;2023-11-21T06:33:30;60253.19;;;-140.67;100.00
2294;BME280;1155;42.644;23.264;2023-11-21T06:35:57;60228.63;;;-140.67;100.00
2294;BME280;1155;42.644;23.264;2023-11-21T06:38:24;60236.81;;;-140.67;100.00
2294;BME280;1155;42.644;23.264;2023-11-21T06:40:55;60236.81;;;-140.67;100.00
2294;BME280;1155;42.644;23.264;2023-11-21T06:43:24;60232.72;;;-140.67;100.00
2294;BME280;1155;42.644;23.264;2023-11-21T06:45:52;60238.84;;;-140.67;100.00
2294;BME280;1155;42.644;23.264;2023-11-21T06:48:19;60236.81;;;-140.67;100.00
2294;BME280;1155;42.644;23.264;2023-11-21T06:50:46;60236.81;;;-140.67;100.00
2294;BME280;1155;42.644;23.264;2023-11-21T06:53:13;60249.09;;;-140.67;100.00
2294;BME280;1155;42.644;23.264;2023-11-21T06:55:40;60249.09;;;-140.67;100.00
2294;BME280;1155;42.644;23.264;2023-11-21T06:58:07;60253.19;;;-140.67;100.00
2294;BME280;1155;42.644;23.264;2023-11-21T07:00:35;60230.66;;;-140.67;100.00
2294;BME280;1155;42.644;23.264;2023-11-21T07:03:02;60240.91;;;-140.67;100.00
2294;BME280;1155;42.644;23.264;2023-11-21T07:05:29;60220.41;;;-140.67;100.00
2294;BME280;1155;42.644;23.264;2023-11-21T07:07:56;60232.72;;;-140.67;100.00
2294;BME280;1155;42.644;23.264;2023-11-21T07:10:29;60218.38;;;-140.67;100.00
2294;BME280;1155;42.644;23.264;2023-11-21T07:12:56;60224.53;;;-140.67;100.00
2294;BME280;1155;42.644;23.264;2023-11-21T07:15:23;60236.81;;;-140.67;100.00
2294;BME280;1155;42.644;23.264;2023-11-21T07:17:52;60240.91;;;-140.67;100.00
2294;BME280;1155;42.644;23.264;2023-11-21T07:20:19;60232.72;;;-140.67;100.00
2294;BME280;1155;42.644;23.264;2023-11-21T07:22:47;60247.03;;;-140.67;100.00
2294;BME280;1155;42.644;23.264;2023-11-21T07:25:23;60251.13;;;-140.67;100.00
2294;BME280;1155;42.644;23.264;2023-11-21T07:27:50;60220.41;;;-140.67;100.00
2294;BME280;1155;42.644;23.264;2023-11-21T07:30:17;60228.63;;;-140.67;100.00
2294;BME280;1155;42.644;23.264;2023-11-21T07:32:43;60249.09;;;-140.67;100.00
2294;BME280;1155;42.644;23.264;2023-11-21T07:35:14;60220.41;;;-140.67;100.00
2294;BME280;1155;42.644;23.264;2023-11-21T07:37:42;60216.31;;;-140.67;100.00
2294;BME280;1155;42.644;23.264;2023-11-21T07:40:10;60232.72;;;-140.67;100.00
2294;BME280;1155;42.644;23.264;2023-11-21T07:42:37;60245.00;;;-140.67;100.00
2294;BME280;1155;42.644;23.264;2023-11-21T07:45:05;60242.94;;;-140.67;100.00
2294;BME280;1155;42.644;23.264;2023-11-21T07:47:32;60245.00;;;-140.67;100.00
2294;BME280;1155;42.644;23.264;2023-11-21T07:49:59;60224.53;;;-140.67;100.00
2294;BME280;1155;42.644;23.264;2023-11-21T07:52:29;60236.81;;;-140.67;100.00
2294;BME280;1155;42.644;23.264;2023-11-21T07:54:56;60234.75;;;-140.67;100.00
2294;BME280;1155;42.644;23.264;2023-11-21T07:57:23;60228.63;;;-140.67;100.00
2294;BME280;1155;42.644;23.264;2023-11-21T07:59:50;60224.53;;;-140.67;100.00
2294;BME280;1155;42.644;23.264;2023-11-21T08:02:19;60245.00;;;-140.67;100.00
2294;BME280;1155;42.644;23.264;2023-11-21T08:04:45;60245.00;;;-140.67;100.00
2294;BME280;1155;42.644;23.264;2023-11-21T08:07:15;60240.91;;;-140.67;100.00
2294;BME280;1155;42.644;23.264;2023-11-21T08:09:43;60212.22;;;-140.67;100.00
2294;BME280;1155;42.644;23.264;2023-11-21T08:12:12;60240.91;;;-140.67;100.00
2294;BME280;1155;42.644;23.264;2023-11-21T08:14:40;60232.72;;;-140.67;100.00
2294;BME280;1155;42.644;23.264;2023-11-21T08:17:06;60257.28;;;-140.67;100.00
2294;BME280;1155;42.644;23.264;2023-11-21T08:19:35;60214.28;;;-140.67;100.00
2294;BME280;1155;42.644;23.264;2023-11-21T08:22:02;60210.19;;;-140.67;100.00
2294;BME280;1155;42.644;23.264;2023-11-21T08:24:29;60238.84;;;-140.67;94.69
2294;BME280;1155;42.644;23.264;2023-11-21T08:26:58;60228.63;;;-140.67;82.88
2294;BME280;1155;42.644;23.264;2023-11-21T08:29:24;60230.66;;;-140.67;80.19
2294;BME280;1155;42.644;23.264;2023-11-21T08:31:52;60212.22;;;-140.67;78.27
2294;BME280;1155;42.644;23.264;2023-11-21T08:34:19;60218.38;;;-140.67;84.29
2294;BME280;1155;42.644;23.264;2023-11-21T08:36:45;60214.28;;;-140.67;83.57
2294;BME280;1155;42.644;23.264;2023-11-21T08:39:12;60220.41;;;-140.67;84.13
2294;BME280;1155;42.644;23.264;2023-11-21T08:41:41;60204.03;;;-140.67;76.63
2294;BME280;1155;42.644;23.264;2023-11-21T08:44:10;60204.03;;;-140.67;78.64
2294;BME280;1155;42.644;23.264;2023-11-21T08:46:37;60216.31;;;-140.67;80.59
2294;BME280;1155;42.644;23.264;2023-11-21T08:49:05;60197.91;;;-140.67;76.38
2294;BME280;1155;42.644;23.264;2023-11-21T08:51:32;60195.84;;;-140.67;68.12
2294;BME280;1155;42.644;23.264;2023-11-21T08:53:58;60189.72;;;-140.67;64.87
2294;BME280;1155;42.644;23.264;2023-11-21T08:56:29;60216.31;;;-140.67;60.06
2294;BME280;1155;42.644;23.264;2023-11-21T08:58:56;60216.31;;;-140.67;53.96
2294;BME280;1155;42.644;23.264;2023-11-21T09:01:25;60204.03;;;-140.67;50.86
2294;BME280;1155;42.644;23.264;2023-11-21T09:03:51;60199.94;;;-140.67;47.53
2294;BME280;1155;42.644;23.264;2023-11-21T09:06:18;60236.81;;;-140.67;44.48
2294;BME280;1155;42.644;23.264;2023-11-21T09:08:45;60251.13;;;-140.67;42.15
2294;BME280;1155;42.644;23.264;2023-11-21T09:11:12;60245.00;;;-140.67;40.92
2294;BME280;1155;42.644;23.264;2023-11-21T09:13:39;60216.31;;;-140.67;43.37
2294;BME280;1155;42.644;23.264;2023-11-21T09:16:06;60197.91;;;-140.67;45.36
2294;BME280;1155;42.644;23.264;2023-11-21T09:18:35;60220.41;;;-140.67;47.75
2294;BME280;1155;42.644;23.264;2023-11-21T09:21:02;60224.53;;;-140.67;47.26
2294;BME280;1155;42.644;23.264;2023-11-21T09:23:29;60208.13;;;-140.67;49.49
2294;BME280;1155;42.644;23.264;2023-11-21T09:25:56;60216.31;;;-140.67;46.58
2294;BME280;1155;42.644;23.264;2023-11-21T09:28:25;60189.72;;;-140.67;49.16
2294;BME280;1155;42.644;23.264;2023-11-21T09:30:52;60218.38;;;-140.67;46.26
2294;BME280;1155;42.644;23.264;2023-11-21T09:33:22;60220.41;;;-140.67;49.24
2294;BME280;1155;42.644;23.264;2023-11-21T09:35:54;60204.03;;;-140.67;49.34
2294;BME280;1155;42.644;23.264;2023-11-21T09:38:24;60197.91;;;-140.67;51.12
2294;BME280;1155;42.644;23.264;2023-11-21T09:40:51;60220.41;;;-140.67;45.75
2294;BME280;1155;42.644;23.264;2023-11-21T09:43:20;60220.41;;;-140.67;45.70
2294;BME280;1155;42.644;23.264;2023-11-21T09:45:51;60220.41;;;-140.67;45.03
2294;BME280;1155;42.644;23.264;2023-11-21T09:48:23;60226.56;;;-140.67;41.21
2294;BME280;1155;42.644;23.264;2023-11-21T09:50:53;60208.13;;;-140.67;39.71
2294;BME280;1155;42.644;23.264;2023-11-21T09:53:21;60216.31;;;-140.67;41.47
2294;BME280;1155;42.644;23.264;2023-11-21T09:55:51;60208.13;;;-140.67;40.38
2294;BME280;1155;42.644;23.264;2023-11-21T09:58:19;60236.81;;;-140.67;39.56
2294;BME280;1155;42.644;23.264;2023-11-21T10:00:48;60220.41;;;-140.67;38.07
2294;BME280;1155;42.644;23.264;2023-11-21T10:03:15;60230.66;;;-140.67;36.35
2294;BME280;1155;42.644;23.264;2023-11-21T10:05:43;60263.44;;;-140.67;33.91
2294;BME280;1155;42.644;23.264;2023-11-21T10:08:12;60238.84;;;-140.67;33.57
2294;BME280;1155;42.644;23.264;2023-11-21T10:10:43;60253.19;;;-140.67;32.52
2294;BME280;1155;42.644;23.264;2023-11-21T10:13:11;60267.53;;;-140.67;30.38
2294;BME280;1155;42.644;23.264;2023-11-21T10:15:42;60279.81;;;-140.67;30.06
2294;BME280;1155;42.644;23.264;2023-11-21T10:18:14;60257.28;;;-140.67;31.55
2294;BME280;1155;42.644;23.264;2023-11-21T10:20:41;60240.91;;;-140.67;32.39
2294;BME280;1155;42.644;23.264;2023-11-21T10:23:13;60234.75;;;-140.67;36.03
2294;BME280;1155;42.644;23.264;2023-11-21T10:25:41;60210.19;;;-140.67;38.67
2294;BME280;1155;42.644;23.264;2023-11-21T10:28:09;60220.41;;;-140.67;38.79
2294;BME280;1155;42.644;23.264;2023-11-21T10:30:37;60212.22;;;-140.67;41.17
2294;BME280;1155;42.644;23.264;2023-11-21T10:33:06;60187.66;;;-140.67;43.05
2294;BME280;1155;42.644;23.264;2023-11-21T10:35:42;60204.03;;;-140.67;42.89
2294;BME280;1155;42.644;23.264;2023-11-21T10:38:13;60191.75;;;-140.67;43.78
2294;BME280;1155;42.644;23.264;2023-11-21T10:40:41;60191.75;;;-140.67;45.54
2294;BME280;1155;42.644;23.264;2023-11-21T10:43:10;60183.56;;;-140.67;46.38
2294;BME280;1155;42.644;23.264;2023-11-21T10:45:38;60183.56;;;-140.67;46.54
2294;BME280;1155;42.644;23.264;2023-11-21T10:48:06;60206.09;;;-140.67;50.05
2294;BME280;1155;42.644;23.264;2023-11-21T10:50:34;60195.84;;;-140.67;51.80
2294;BME280;1155;42.644;23.264;2023-11-21T10:53:02;60179.47;;;-140.67;54.70
2294;BME280;1155;42.644;23.264;2023-11-21T10:55:31;60193.81;;;-140.67;54.30
2294;BME280;1155;42.644;23.264;2023-11-21T10:57:59;60195.84;;;-140.67;54.76
2294;BME280;1155;42.644;23.264;2023-11-21T11:00:27;60171.28;;;-140.67;55.73
2294;BME280;1155;42.644;23.264;2023-11-21T11:02:55;60195.84;;;-140.67;54.12
2294;BME280;1155;42.644;23.264;2023-11-21T11:05:24;60204.03;;;-140.67;55.63
2294;BME280;1155;42.644;23.264;2023-11-21T11:07:54;60165.13;;;-140.67;56.96
2294;BME280;1155;42.644;23.264;2023-11-21T11:10:25;60204.03;;;-140.67;57.19
2294;BME280;1155;42.644;23.264;2023-11-21T11:12:54;60185.59;;;-140.67;57.86
2294;BME280;1155;42.644;23.264;2023-11-21T11:15:23;60202.00;;;-140.67;57.88
2294;BME280;1155;42.644;23.264;2023-11-21T11:17:50;60202.00;;;-140.67;56.93
2294;BME280;1155;42.644;23.264;2023-11-21T11:20:18;60187.66;;;-140.67;59.51
2294;BME280;1155;42.644;23.264;2023-11-21T11:22:54;60195.84;;;-140.67;58.79
2294;BME280;1155;42.644;23.264;2023-11-21T11:25:43;60197.91;;;-140.67;54.27
2294;BME280;1155;42.644;23.264;2023-11-21T11:28:19;60199.94;;;-140.67;54.53
2294;BME280;1155;42.644;23.264;2023-11-21T11:30:57;60202.00;;;-140.67;55.68
2294;BME280;1155;42.644;23.264;2023-11-21T11:33:36;60191.75;;;-140.67;55.44
2294;BME280;1155;42.644;23.264;2023-11-21T11:36:13;60191.75;;;-140.67;57.62
2294;BME280;1155;42.644;23.264;2023-11-21T11:38:46;60191.75;;;-140.67;57.42
2294;BME280;1155;42.644;23.264;2023-11-21T11:41:24;60206.09;;;-140.67;59.34
2294;BME280;1155;42.644;23.264;2023-11-21T11:43:53;60195.84;;;-140.67;66.81
2294;BME280;1155;42.644;23.264;2023-11-21T11:46:20;60222.47;;;-140.67;72.04
2294;BME280;1155;42.644;23.264;2023-11-21T11:48:48;60202.00;;;-140.67;67.80
2294;BME280;1155;42.644;23.264;2023-11-21T11:51:15;60179.47;;;-140.67;69.05
2294;BME280;1155;42.644;23.264;2023-11-21T11:53:46;60199.94;;;-140.67;68.59
2294;BME280;1155;42.644;23.264;2023-11-21T11:56:22;60216.31;;;-140.67;79.65
2294;BME280;1155;42.644;23.264;2023-11-21T11:58:52;60228.63;;;-140.67;82.00
2294;BME280;1155;42.644;23.264;2023-11-21T12:01:20;60187.66;;;-140.67;94.93
2294;BME280;1155;42.644;23.264;2023-11-21T12:04:24;60220.41;;;-140.67;95.05
2294;BME280;1155;42.644;23.264;2023-11-21T12:06:59;60202.00;;;-140.67;100.00
2294;BME280;1155;42.644;23.264;2023-11-21T12:09:28;60212.22;;;-140.67;100.00
2294;BME280;1155;42.644;23.264;2023-11-21T12:11:56;60220.41;;;-140.67;100.00
2294;BME280;1155;42.644;23.264;2023-11-21T12:14:25;60214.28;;;-140.67;100.00
2294;BME280;1155;42.644;23.264;2023-11-21T12:16:52;60210.19;;;-140.67;100.00
2294;BME280;1155;42.644;23.264;2023-11-21T12:19:20;60226.56;;;-140.67;100.00
2294;BME280;1155;42.644;23.264;2023-11-21T12:21:48;60212.22;;;-140.67;100.00
2294;BME280;1155;42.644;23.264;2023-11-21T12:24:16;60240.91;;;-140.67;100.00
2294;BME280;1155;42.644;23.264;2023-11-21T12:26:43;60222.47;;;-140.67;100.00
2294;BME280;1155;42.644;23.264;2023-11-21T12:29:10;60204.03;;;-140.67;100.00
2294;BME280;1155;42.644;23.264;2023-11-21T12:31:39;60226.56;;;-140.67;100.00
2294;BME280;1155;42.644;23.264;2023-11-21T12:34:06;60224.53;;;-140.67;100.00
2294;BME280;1155;42.644;23.264;2023-11-21T12:36:37;60224.53;;;-140.67;100.00
2294;BME280;1155;42.644;23.264;2023-11-21T12:39:04;60220.41;;;-140.67;100.00
2294;BME280;1155;42.644;23.264;2023-11-21T12:41:31;60214.28;;;-140.67;100.00
2294;BME280;1155;42.644;23.264;2023-11-21T12:43:58;60234.75;;;-140.67;100.00
2294;BME280;1155;42.644;23.264;2023-11-21T12:46:25;60204.03;;;-140.67;100.00
2294;BME280;1155;42.644;23.264;2023-11-21T12:48:56;60228.63;;;-140.67;100.00